createdAt,value
2023-01-04T00:02:04.104Z,3.92
2023-01-04T00:04:30.536Z,7.75
2023-01-04T00:06:57.230Z,2.92
2023-01-04T00:09:23.595Z,5.90
2023-01-04T00:11:50.009Z,2.72
2023-01-04T00:14:18.561Z,12.68
2023-01-04T00:16:45.194Z,6.40
2023-01-04T00:19:12.773Z,4.25
2023-01-04T00:21:39.211Z,3.28
2023-01-04T00:24:05.859Z,4.32
2023-01-04T00:26:33.894Z,6.25
2023-01-04T00:29:05.772Z,5.93
2023-01-04T00:31:33.306Z,6.38
2023-01-04T00:34:01.765Z,2.95
2023-01-04T00:36:28.869Z,4.50
2023-01-04T00:39:08.650Z,5.68
2023-01-04T00:42:05.008Z,6.97
2023-01-04T00:44:35.235Z,4.05
2023-01-04T00:47:02.746Z,4.93
2023-01-04T00:49:29.895Z,4.10
2023-01-04T00:51:56.311Z,4.50
2023-01-04T00:54:23.138Z,6.03
2023-01-04T00:56:49.647Z,6.03
2023-01-04T00:59:17.929Z,11.15
2023-01-04T01:01:44.892Z,3.45
2023-01-04T01:04:13.222Z,5.55
2023-01-04T01:06:40.303Z,5.10
2023-01-04T01:09:07.057Z,5.78
2023-01-04T01:11:34.204Z,5.32
2023-01-04T01:14:00.576Z,4.18
2023-01-04T01:16:53.224Z,6.18
2023-01-04T01:19:16.018Z,3.55
2023-01-04T01:21:42.472Z,4.70
2023-01-04T01:24:19.441Z,7.97
2023-01-04T01:26:46.211Z,5.22
2023-01-04T01:29:12.610Z,5.15
2023-01-04T01:31:40.625Z,2.38
2023-01-04T01:34:07.163Z,6.35
2023-01-04T01:36:33.823Z,6.22
2023-01-04T01:39:00.211Z,6.65
2023-01-04T01:41:29.792Z,6.53
2023-01-04T01:43:59.197Z,5.75
2023-01-04T01:46:44.625Z,3.92
2023-01-04T01:49:25.772Z,6.25
2023-01-04T01:51:53.200Z,2.92
2023-01-04T01:54:29.041Z,4.88
2023-01-04T01:56:58.162Z,8.73
2023-01-04T01:59:25.082Z,4.93
2023-01-04T02:01:51.571Z,6.85
2023-01-04T02:04:18.053Z,6.15
2023-01-04T02:06:52.883Z,5.10
2023-01-04T02:09:19.570Z,6.50
2023-01-04T02:11:46.196Z,6.53
2023-01-04T02:14:28.961Z,5.85
2023-01-04T02:17:09.791Z,5.35
2023-01-04T02:19:54.969Z,5.10
2023-01-04T02:22:46.160Z,3.90
2023-01-04T02:25:39.767Z,3.03
2023-01-04T02:28:28.781Z,5.95
2023-01-04T02:31:00.456Z,7.38
2023-01-04T02:33:48.232Z,5.45
2023-01-04T02:36:30.677Z,4.32
2023-01-04T02:41:38.551Z,8.55
2023-01-04T02:44:23.520Z,4.90
2023-01-04T02:47:11.691Z,7.47
2023-01-04T02:50:04.027Z,5.63
2023-01-04T02:52:31.357Z,5.50
2023-01-04T02:54:58.173Z,10.25
2023-01-04T02:57:51.080Z,4.00
2023-01-04T03:01:10.780Z,2.83
2023-01-04T03:04:21.576Z,7.97
2023-01-04T03:06:58.620Z,8.23
2023-01-04T03:09:29.497Z,32.80
2023-01-04T03:12:23.261Z,4.07
2023-01-04T03:15:00.262Z,8.80
2023-01-04T03:17:28.293Z,8.52
2023-01-04T03:19:56.268Z,16.02
2023-01-04T03:22:53.885Z,3.22
2023-01-04T03:25:42.324Z,6.57
2023-01-04T03:28:29.741Z,24.52
2023-01-04T03:31:25.480Z,5.75
2023-01-04T03:34:10.600Z,4.65
2023-01-04T03:36:45.269Z,14.35
2023-01-04T03:39:35.467Z,5.70
2023-01-04T03:42:32.562Z,3.20
2023-01-04T03:45:41.296Z,3.33
2023-01-04T03:48:34.487Z,2.80
2023-01-04T03:51:14.432Z,12.02
2023-01-04T03:54:04.237Z,5.97
2023-01-04T03:56:32.378Z,5.35
2023-01-04T03:58:59.058Z,5.05
2023-01-04T04:01:26.776Z,2.50
2023-01-04T04:04:12.472Z,2.92
2023-01-04T04:06:58.001Z,28.95
2023-01-04T04:09:24.486Z,4.07
2023-01-04T04:11:50.874Z,8.15
2023-01-04T04:14:17.347Z,15.40
2023-01-04T04:16:43.788Z,27.00
2023-01-04T04:19:10.204Z,3.83
2023-01-04T04:21:37.151Z,4.57
2023-01-04T04:24:04.016Z,7.85
2023-01-04T04:26:30.559Z,5.00
2023-01-04T04:28:56.908Z,4.85
2023-01-04T04:31:23.341Z,2.65
2023-01-04T04:33:49.778Z,2.42
2023-01-04T04:36:16.167Z,4.68
2023-01-04T04:38:42.523Z,7.30
2023-01-04T04:41:29.415Z,5.30
2023-01-04T04:43:55.813Z,4.05
2023-01-04T04:46:22.520Z,4.50
2023-01-04T04:48:49.131Z,5.75
2023-01-04T04:51:15.546Z,4.43
2023-01-04T04:53:41.991Z,8.60
2023-01-04T04:56:09.083Z,2.80
2023-01-04T04:58:35.862Z,20.15
2023-01-04T05:01:02.319Z,12.52
2023-01-04T05:03:28.771Z,2.63
2023-01-04T05:05:55.201Z,3.53
2023-01-04T05:08:21.599Z,3.53
2023-01-04T05:10:48.029Z,8.32
2023-01-04T05:13:14.405Z,2.13
2023-01-04T05:15:44.011Z,4.47
2023-01-04T05:18:12.214Z,5.20
2023-01-04T05:20:38.706Z,4.45
2023-01-04T05:23:06.395Z,3.55
2023-01-04T05:25:33.106Z,2.78
2023-01-04T05:27:59.720Z,1.80
2023-01-04T05:30:44.772Z,5.80
2023-01-04T05:33:11.717Z,1.63
2023-01-04T05:35:38.119Z,2.78
2023-01-04T05:38:04.646Z,3.72
2023-01-04T05:40:31.160Z,2.75
2023-01-04T05:42:57.545Z,6.47
2023-01-04T05:45:24.029Z,8.40
2023-01-04T05:47:51.705Z,3.83
2023-01-04T05:50:19.753Z,4.47
2023-01-04T05:52:46.638Z,12.30
2023-01-04T05:55:13.328Z,2.78
2023-01-04T05:57:39.874Z,1.88
2023-01-04T06:00:07.386Z,3.45
2023-01-04T06:02:33.910Z,6.22
2023-01-04T06:05:00.409Z,2.72
2023-01-04T06:07:28.093Z,1.50
2023-01-04T06:09:54.560Z,4.63
2023-01-04T06:12:21.168Z,13.80
2023-01-04T06:14:47.567Z,1.85
2023-01-04T06:17:14.023Z,16.20
2023-01-04T06:19:40.452Z,13.40
2023-01-04T06:22:07.443Z,7.38
2023-01-04T06:24:34.069Z,10.23
2023-01-04T06:27:01.322Z,2.47
2023-01-04T06:29:27.934Z,2.83
2023-01-04T06:31:54.850Z,1.90
2023-01-04T06:34:25.432Z,1.50
2023-01-04T06:36:55.180Z,3.00
2023-01-04T06:39:21.624Z,3.53
2023-01-04T06:41:48.119Z,3.63
2023-01-04T06:44:14.689Z,2.15
2023-01-04T06:46:41.262Z,1.55
2023-01-04T06:49:07.712Z,3.83
2023-01-04T06:51:34.101Z,2.13
2023-01-04T06:54:00.466Z,6.88
2023-01-04T06:56:26.912Z,5.55
2023-01-04T06:58:53.347Z,7.07
2023-01-04T07:01:19.790Z,3.83
2023-01-04T07:03:46.267Z,3.25
2023-01-04T07:06:12.635Z,1.52
2023-01-04T07:08:39.029Z,1.95
2023-01-04T07:11:05.497Z,1.52
2023-01-04T07:13:31.907Z,4.05
2023-01-04T07:15:58.394Z,1.48
2023-01-04T07:18:24.825Z,1.42
2023-01-04T07:20:51.215Z,10.45
2023-01-04T07:23:17.815Z,1.13
2023-01-04T07:25:44.415Z,9.95
2023-01-04T07:28:10.885Z,2.03
2023-01-04T07:30:37.324Z,4.60
2023-01-04T07:33:03.804Z,5.43
2023-01-04T07:35:30.182Z,1.95
2023-01-04T07:37:59.003Z,2.53
2023-01-04T07:40:26.825Z,3.38
2023-01-04T07:42:58.152Z,2.13
2023-01-04T07:45:25.061Z,2.10
2023-01-04T07:47:51.510Z,2.53
2023-01-04T07:50:18.009Z,5.78
2023-01-04T07:52:44.458Z,2.60
2023-01-04T07:55:10.894Z,5.43
2023-01-04T07:57:37.291Z,2.75
2023-01-04T08:00:04.897Z,8.13
2023-01-04T08:02:31.423Z,10.32
2023-01-04T08:04:57.959Z,2.35
2023-01-04T08:07:24.436Z,2.60
2023-01-04T08:09:50.813Z,2.38
2023-01-04T08:12:17.233Z,2.28
2023-01-04T08:14:43.592Z,6.43
2023-01-04T08:17:10.102Z,3.40
2023-01-04T08:19:36.515Z,2.05
2023-01-04T08:22:02.951Z,2.50
2023-01-04T08:24:29.393Z,2.25
2023-01-04T08:26:56.221Z,2.38
2023-01-04T08:29:22.658Z,5.07
2023-01-04T08:31:49.114Z,2.55
2023-01-04T08:34:16.998Z,2.60
2023-01-04T08:36:51.048Z,2.10
2023-01-04T08:39:17.567Z,2.95
2023-01-04T08:42:00.802Z,7.72
2023-01-04T08:44:31.572Z,3.97
2023-01-04T08:46:58.836Z,2.70
2023-01-04T08:49:25.411Z,28.83
2023-01-04T08:51:52.145Z,4.70
2023-01-04T08:54:18.631Z,3.28
2023-01-04T08:56:45.196Z,3.33
2023-01-04T08:59:13.037Z,2.70
2023-01-04T09:01:40.272Z,3.60
2023-01-04T09:04:07.478Z,2.45
2023-01-04T09:06:34.396Z,2.65
2023-01-04T09:09:00.842Z,3.13
2023-01-04T09:11:27.321Z,2.00
2023-01-04T09:14:06.821Z,2.85
2023-01-04T09:16:34.918Z,1.42
2023-01-04T09:19:01.392Z,1.77
2023-01-04T09:21:28.201Z,4.40
2023-01-04T09:23:56.835Z,1.55
2023-01-04T09:26:23.697Z,1.52
2023-01-04T09:28:51.843Z,2.80
2023-01-04T09:31:20.597Z,3.35
2023-01-04T09:34:13.239Z,2.35
2023-01-04T09:36:33.648Z,2.88
2023-01-04T09:39:00.023Z,5.47
2023-01-04T09:41:27.616Z,2.10
2023-01-04T09:43:55.137Z,3.58
2023-01-04T09:46:51.037Z,5.43
2023-01-04T09:49:21.473Z,14.15
2023-01-04T09:52:10.998Z,4.63
2023-01-04T09:54:54.122Z,2.30
2023-01-04T09:57:24.311Z,4.20
2023-01-04T10:00:10.254Z,13.68
2023-01-04T10:02:43.032Z,2.65
2023-01-04T10:05:18.216Z,3.55
2023-01-04T10:07:44.626Z,2.45
2023-01-04T10:10:16.276Z,3.90
2023-01-04T10:12:48.102Z,13.27
2023-01-04T10:15:27.070Z,2.03
2023-01-04T10:19:23.553Z,1.95
2023-01-04T10:23:51.616Z,3.15
2023-01-04T10:26:25.553Z,1.55
2023-01-04T10:29:27.315Z,5.63
2023-01-04T10:32:00.536Z,2.90
2023-01-04T10:34:42.353Z,3.53
2023-01-04T10:37:15.955Z,2.10
2023-01-04T10:39:43.245Z,2.63
2023-01-04T10:42:21.450Z,2.95
2023-01-04T10:45:18.053Z,3.60
2023-01-04T10:47:55.684Z,16.45
2023-01-04T10:50:31.212Z,2.67
2023-01-04T10:53:17.602Z,2.63
2023-01-04T10:56:24.029Z,2.35
2023-01-04T10:59:01.820Z,2.08
2023-01-04T11:01:41.905Z,2.33
2023-01-04T11:04:33.979Z,4.30
2023-01-04T11:07:05.600Z,17.83
2023-01-04T11:09:42.616Z,7.28
2023-01-04T11:12:11.195Z,5.50
2023-01-04T11:14:37.826Z,6.15
2023-01-04T11:17:05.778Z,2.60
2023-01-04T11:19:32.904Z,2.33
2023-01-04T11:22:26.277Z,1.60
2023-01-04T11:25:34.014Z,2.00
2023-01-04T11:27:48.328Z,28.95
2023-01-04T11:30:24.464Z,1.27
2023-01-04T11:33:00.960Z,2.40
2023-01-04T11:35:42.572Z,2.90
2023-01-04T11:38:14.329Z,2.13
2023-01-04T11:40:41.247Z,2.73
2023-01-04T11:43:18.873Z,2.22
2023-01-04T11:46:04.287Z,4.38
2023-01-04T11:48:32.211Z,3.00
2023-01-04T11:50:58.678Z,3.58
2023-01-04T11:53:36.411Z,2.65
2023-01-04T11:56:18.803Z,4.75
2023-01-04T12:01:33.860Z,3.90
2023-01-04T12:04:00.535Z,9.32
2023-01-04T12:06:35.388Z,2.92
2023-01-04T12:09:02.316Z,14.35
2023-01-04T12:11:31.560Z,3.70
2023-01-04T12:14:02.052Z,6.88
2023-01-04T12:16:40.646Z,3.10
2023-01-04T12:19:07.580Z,10.15
2023-01-04T12:21:34.920Z,5.90
2023-01-04T12:24:02.100Z,3.97
2023-01-04T12:26:28.488Z,4.03
2023-01-04T12:29:23.124Z,3.63
2023-01-04T12:31:54.267Z,7.30
2023-01-04T12:34:24.043Z,2.42
2023-01-04T12:36:50.304Z,2.25
2023-01-04T12:39:16.766Z,2.65
2023-01-04T12:41:43.366Z,3.10
2023-01-04T12:44:38.682Z,23.40
2023-01-04T12:47:49.992Z,4.72
2023-01-04T12:50:19.446Z,1.90
2023-01-04T12:53:11.268Z,4.78
2023-01-04T12:55:44.112Z,1.75
2023-01-04T12:59:24.178Z,4.82
2023-01-04T13:01:27.829Z,1.60
2023-01-04T13:04:04.268Z,2.67
2023-01-04T13:06:34.467Z,6.10
2023-01-04T13:09:01.608Z,1.95
2023-01-04T13:11:36.503Z,2.13
2023-01-04T13:14:11.857Z,2.17
2023-01-04T13:16:47.252Z,3.15
2023-01-04T13:19:25.219Z,2.97
2023-01-04T13:21:52.862Z,2.33
2023-01-04T13:24:34.156Z,1.73
2023-01-04T13:27:10.200Z,1.75
2023-01-04T13:29:37.089Z,2.25
2023-01-04T13:32:04.789Z,1.85
2023-01-04T13:34:40.095Z,1.23
2023-01-04T13:37:13.481Z,1.10
2023-01-04T13:39:50.466Z,1.35
2023-01-04T13:42:24.143Z,0.88
2023-01-04T13:45:21.799Z,2.53
2023-01-04T13:47:52.984Z,1.52
2023-01-04T13:50:25.293Z,2.35
2023-01-04T13:53:05.687Z,1.85
2023-01-04T13:55:35.208Z,2.10
2023-01-04T13:58:04.205Z,1.55
2023-01-04T14:00:43.189Z,1.20
2023-01-04T14:03:31.499Z,1.50
2023-01-04T14:06:09.699Z,6.25
2023-01-04T14:08:41.819Z,4.78
2023-01-04T14:11:36.711Z,1.02
2023-01-04T14:14:12.775Z,1.02
2023-01-04T14:16:39.173Z,1.17
2023-01-04T14:19:32.421Z,14.30
2023-01-04T14:21:58.889Z,2.10
2023-01-04T14:25:07.885Z,1.17
2023-01-04T14:27:39.269Z,1.30
2023-01-04T14:30:17.863Z,1.23
2023-01-04T14:32:58.408Z,2.20
2023-01-04T14:35:25.504Z,0.90
2023-01-04T14:37:52.096Z,1.08
2023-01-04T14:40:24.499Z,1.40
2023-01-04T14:42:50.866Z,1.08
2023-01-04T14:45:17.431Z,1.17
2023-01-04T14:47:43.833Z,1.60
2023-01-04T14:50:13.078Z,0.77
2023-01-04T14:52:39.764Z,1.60
2023-01-04T14:55:06.971Z,2.20
2023-01-04T14:57:33.354Z,1.20
2023-01-04T14:59:59.717Z,1.25
2023-01-04T15:02:27.044Z,1.60
2023-01-04T15:04:53.596Z,1.40
2023-01-04T15:07:40.313Z,1.40
2023-01-04T15:10:15.624Z,1.05
2023-01-04T15:12:41.969Z,1.42
2023-01-04T15:15:09.037Z,1.23
2023-01-04T15:17:35.487Z,1.02
2023-01-04T15:20:01.844Z,2.17
2023-01-04T15:22:28.232Z,3.78
2023-01-04T15:24:54.594Z,4.57
2023-01-04T15:27:24.469Z,3.78
2023-01-04T15:29:55.356Z,3.00
2023-01-04T15:32:21.821Z,9.80
2023-01-04T15:34:51.667Z,5.13
2023-01-04T15:37:23.890Z,4.85
2023-01-04T15:39:52.290Z,7.75
2023-01-04T15:42:39.132Z,4.95
2023-01-04T15:45:06.274Z,2.83
2023-01-04T15:47:33.915Z,4.28
2023-01-04T15:50:00.554Z,5.20
2023-01-04T15:52:27.428Z,3.33
2023-01-04T15:54:53.893Z,4.20
2023-01-04T15:57:20.282Z,4.60
2023-01-04T15:59:47.616Z,5.38
2023-01-04T16:02:14.888Z,5.00
2023-01-04T16:04:41.322Z,6.55
2023-01-04T16:07:07.721Z,4.60
2023-01-04T16:09:34.124Z,4.57
2023-01-04T16:12:19.240Z,4.43
2023-01-04T16:14:45.617Z,4.40
2023-01-04T16:17:11.986Z,6.05
2023-01-04T16:19:38.344Z,6.15
2023-01-04T16:22:04.747Z,4.60
2023-01-04T16:25:09.267Z,4.18
2023-01-04T16:27:17.847Z,5.22
2023-01-04T16:29:44.256Z,5.55
2023-01-04T16:32:10.694Z,5.68
2023-01-04T16:34:37.289Z,4.45
2023-01-04T16:37:03.917Z,4.45
2023-01-04T16:42:16.691Z,10.60
2023-01-04T16:44:43.101Z,7.13
2023-01-04T16:47:09.512Z,6.43
2023-01-04T16:49:35.981Z,10.27
2023-01-04T16:52:02.366Z,6.63
2023-01-04T16:54:28.737Z,8.68
2023-01-04T16:56:58.419Z,10.95
2023-01-04T16:59:24.994Z,9.13
2023-01-04T17:01:57.536Z,10.18
2023-01-04T17:04:24.553Z,8.45
2023-01-04T17:06:53.079Z,7.75
2023-01-04T17:09:21.095Z,10.25
2023-01-04T17:12:46.302Z,8.60
2023-01-04T17:14:43.364Z,12.32
2023-01-04T17:17:10.030Z,5.55
2023-01-04T17:19:36.555Z,7.85
2023-01-04T17:22:02.964Z,7.10
2023-01-04T17:24:29.386Z,9.35
2023-01-04T17:26:55.770Z,17.10
2023-01-04T17:29:22.167Z,9.68
2023-01-04T17:31:48.629Z,6.88
2023-01-04T17:34:22.503Z,20.10
2023-01-04T17:36:49.584Z,5.28
2023-01-04T17:39:16.001Z,5.75
2023-01-04T17:41:42.464Z,5.43
2023-01-04T17:44:10.533Z,6.47
2023-01-04T17:46:37.705Z,6.82
2023-01-04T17:49:25.577Z,7.93
2023-01-04T17:51:55.170Z,4.47
2023-01-04T17:54:22.882Z,4.22
2023-01-04T17:56:49.266Z,3.00
2023-01-04T17:59:15.650Z,7.28
2023-01-04T18:01:42.038Z,5.68
2023-01-04T18:04:09.097Z,4.53
2023-01-04T18:06:36.379Z,51.03
2023-01-04T18:09:04.504Z,9.60
2023-01-04T18:11:31.089Z,6.63
2023-01-04T18:13:57.875Z,8.95
2023-01-04T18:16:28.794Z,23.25
2023-01-04T18:18:57.287Z,11.43
2023-01-04T18:21:29.845Z,8.20
2023-01-04T18:27:19.376Z,6.32
2023-01-04T18:29:31.594Z,6.82
2023-01-04T18:31:58.027Z,4.82
2023-01-04T18:34:26.437Z,9.10
2023-01-04T18:36:53.010Z,6.45
2023-01-04T18:39:19.408Z,11.93
2023-01-04T18:41:46.107Z,8.52
2023-01-04T18:44:32.047Z,11.43
2023-01-04T18:46:58.912Z,15.75
2023-01-04T18:49:25.290Z,9.52
2023-01-04T18:51:51.657Z,13.10
2023-01-04T18:54:20.611Z,9.98
2023-01-04T18:56:47.480Z,11.15
2023-01-04T18:59:16.914Z,11.27
2023-01-04T19:01:43.941Z,10.35
2023-01-04T19:04:12.285Z,20.88
2023-01-04T19:06:40.198Z,11.50
2023-01-04T19:09:07.274Z,13.07
2023-01-04T19:11:34.367Z,13.68
2023-01-04T19:14:00.797Z,44.70
2023-01-04T19:16:30.824Z,13.05
2023-01-04T19:18:59.418Z,11.25
2023-01-04T19:21:25.865Z,14.05
2023-01-04T19:23:52.564Z,16.30
2023-01-04T19:26:19.073Z,16.17
2023-01-04T19:28:45.461Z,18.33
2023-01-04T19:31:13.028Z,13.85
2023-01-04T19:33:39.496Z,19.02
2023-01-04T19:36:10.626Z,19.88
2023-01-04T19:38:37.481Z,16.65
2023-01-04T19:41:05.203Z,18.58
2023-01-04T19:43:31.587Z,17.80
2023-01-04T19:45:58.148Z,21.25
2023-01-04T19:48:24.726Z,22.30
2023-01-04T19:51:06.792Z,21.95
2023-01-04T19:53:33.229Z,24.45
2023-01-04T19:55:59.708Z,27.42
2023-01-04T19:58:26.194Z,33.15
2023-01-04T20:00:55.078Z,23.88
2023-01-04T20:03:23.433Z,34.75
2023-01-04T20:05:50.295Z,30.38
2023-01-04T20:08:16.842Z,25.40
2023-01-04T20:10:43.305Z,26.98
2023-01-04T20:13:09.684Z,27.52
2023-01-04T20:15:39.518Z,35.38
2023-01-04T20:18:11.926Z,24.50
2023-01-04T20:20:44.961Z,21.20
2023-01-04T20:23:12.082Z,31.02
2023-01-04T20:25:43.315Z,23.60
2023-01-04T20:28:10.037Z,24.52
2023-01-04T20:30:36.867Z,28.55
2023-01-04T20:33:03.736Z,25.67
2023-01-04T20:35:31.207Z,31.52
2023-01-04T20:37:58.830Z,32.22
2023-01-04T20:40:26.871Z,26.95
2023-01-04T20:43:11.939Z,27.00
2023-01-04T20:45:46.025Z,26.13
2023-01-04T20:48:13.008Z,31.17
2023-01-04T20:50:39.702Z,35.78
2023-01-04T20:53:06.616Z,36.38
2023-01-04T20:55:40.003Z,24.98
2023-01-04T20:58:11.946Z,20.38
2023-01-04T21:00:39.024Z,28.98
2023-01-04T21:03:06.904Z,39.15
2023-01-04T21:05:42.173Z,24.70
2023-01-04T21:08:09.378Z,33.28
2023-01-04T21:10:36.360Z,23.67
2023-01-04T21:13:03.741Z,26.95
2023-01-04T21:15:30.325Z,31.23
2023-01-04T21:17:56.747Z,27.42
2023-01-04T21:20:24.435Z,30.63
2023-01-04T21:22:51.055Z,68.70
2023-01-04T21:25:17.477Z,33.22
2023-01-04T21:27:43.903Z,34.30
2023-01-04T21:30:10.792Z,28.20
2023-01-04T21:32:37.193Z,27.02
2023-01-04T21:35:03.844Z,27.17
2023-01-04T21:37:30.222Z,23.48
2023-01-04T21:39:56.604Z,34.17
2023-01-04T21:42:22.985Z,27.48
2023-01-04T21:44:49.377Z,42.03
2023-01-04T21:47:15.946Z,30.17
2023-01-04T21:49:43.877Z,34.63
2023-01-04T21:52:11.177Z,30.92
2023-01-04T21:54:38.315Z,30.90
2023-01-04T21:57:05.103Z,31.75
2023-01-04T21:59:31.543Z,39.50
2023-01-04T22:01:58.121Z,30.23
2023-01-04T22:04:24.672Z,26.25
2023-01-04T22:06:51.098Z,33.72
2023-01-04T22:09:17.473Z,27.90
2023-01-04T22:11:43.916Z,32.97
2023-01-04T22:14:10.430Z,30.65
2023-01-04T22:16:36.898Z,25.73
2023-01-04T22:19:03.379Z,31.23
2023-01-04T22:21:30.651Z,26.90
2023-01-04T22:23:57.369Z,27.38
2023-01-04T22:26:23.944Z,41.30
2023-01-04T22:28:50.325Z,26.10
2023-01-04T22:31:16.748Z,34.70
2023-01-04T22:33:43.473Z,25.38
2023-01-04T22:36:21.668Z,28.42
2023-01-04T22:38:49.841Z,29.60
2023-01-04T22:41:17.226Z,27.88
2023-01-04T22:43:43.942Z,24.40
2023-01-04T22:46:13.338Z,28.95
2023-01-04T22:48:39.757Z,24.30
2023-01-04T22:51:07.669Z,22.52
2023-01-04T22:53:34.470Z,26.20
2023-01-04T22:56:22.357Z,30.02
2023-01-04T22:58:54.161Z,25.63
2023-01-04T23:03:52.669Z,23.80
2023-01-04T23:06:19.751Z,23.88
2023-01-04T23:08:46.164Z,28.77
2023-01-04T23:11:17.504Z,23.45
2023-01-04T23:13:44.265Z,24.40
2023-01-04T23:16:13.513Z,21.58
2023-01-04T23:18:40.093Z,28.88
2023-01-04T23:21:06.756Z,39.30
2023-01-04T23:23:33.204Z,29.33
2023-01-04T23:26:13.108Z,26.80
2023-01-04T23:28:39.553Z,18.38
2023-01-04T23:31:07.751Z,36.45
2023-01-04T23:33:36.681Z,31.60
2023-01-04T23:36:23.881Z,27.00
2023-01-04T23:38:55.590Z,22.27
2023-01-04T23:41:42.510Z,23.02
2023-01-04T23:44:14.842Z,24.02
2023-01-04T23:46:41.858Z,22.25
2023-01-04T23:49:08.399Z,25.17
2023-01-04T23:51:34.922Z,28.83
2023-01-04T23:54:01.331Z,26.58
2023-01-04T23:56:27.695Z,28.83
2023-01-04T23:58:54.073Z,30.13
